createdAt,value
2023-02-12T00:01:35.444Z,17.10
2023-02-12T00:04:03.422Z,18.02
2023-02-12T00:06:33.691Z,18.48
2023-02-12T00:09:01.744Z,18.13
2023-02-12T00:11:30.813Z,16.75
2023-02-12T00:13:59.117Z,17.67
2023-02-12T00:16:33.156Z,17.13
2023-02-12T00:19:01.492Z,18.00
2023-02-12T00:21:29.512Z,16.08
2023-02-12T00:23:57.957Z,16.23
2023-02-12T00:26:26.594Z,14.25
2023-02-12T00:28:55.701Z,16.25
2023-02-12T00:31:26.151Z,16.73
2023-02-12T00:33:57.684Z,15.82
2023-02-12T00:36:27.320Z,14.18
2023-02-12T00:38:56.639Z,15.48
2023-02-12T00:41:26.023Z,15.25
2023-02-12T00:44:06.551Z,15.70
2023-02-12T00:46:36.013Z,13.35
2023-02-12T00:49:04.307Z,13.52
2023-02-12T00:51:32.249Z,13.82
2023-02-12T00:54:00.039Z,12.98
2023-02-12T00:56:28.138Z,13.45
2023-02-12T00:58:56.128Z,12.35
2023-02-12T01:01:26.099Z,13.13
2023-02-12T01:03:55.136Z,13.15
2023-02-12T01:06:23.260Z,14.40
2023-02-12T01:08:52.837Z,12.75
2023-02-12T01:11:20.962Z,12.27
2023-02-12T01:13:51.015Z,11.90
2023-02-12T01:16:26.133Z,12.30
2023-02-12T01:18:56.105Z,12.63
2023-02-12T01:21:28.349Z,12.68
2023-02-12T01:23:57.379Z,13.40
2023-02-12T01:26:29.011Z,12.85
2023-02-12T01:29:02.370Z,13.05
2023-02-12T01:31:34.280Z,12.65
2023-02-12T01:34:03.007Z,12.88
2023-02-12T01:36:33.960Z,12.80
2023-02-12T01:39:03.347Z,13.38
2023-02-12T01:41:34.603Z,12.57
2023-02-12T01:44:09.115Z,11.07
2023-02-12T01:46:39.538Z,12.23
2023-02-12T01:49:30.687Z,13.20
2023-02-12T01:52:06.504Z,13.70
2023-02-12T01:54:36.225Z,12.45
2023-02-12T01:57:05.441Z,13.05
2023-02-12T01:59:33.500Z,10.32
2023-02-12T02:02:03.838Z,11.80
2023-02-12T02:04:37.568Z,11.77
2023-02-12T02:07:08.796Z,11.38
2023-02-12T02:09:37.712Z,11.77
2023-02-12T02:12:25.090Z,11.95
2023-02-12T02:14:56.713Z,11.60
2023-02-12T02:17:40.120Z,12.95
2023-02-12T02:20:26.537Z,11.05
2023-02-12T02:23:30.940Z,10.73
2023-02-12T02:26:32.008Z,12.25
2023-02-12T02:29:20.141Z,12.88
2023-02-12T02:32:03.918Z,12.05
2023-02-12T02:34:39.484Z,11.95
2023-02-12T02:37:20.102Z,11.75
2023-02-12T02:40:09.800Z,12.63
2023-02-12T02:43:06.626Z,13.18
2023-02-12T02:45:51.355Z,12.57
2023-02-12T02:48:25.333Z,12.93
2023-02-12T02:50:57.661Z,14.07
2023-02-12T02:53:40.072Z,12.20
2023-02-12T02:56:11.699Z,12.45
2023-02-12T02:58:57.634Z,12.48
2023-02-12T03:01:29.717Z,13.43
2023-02-12T03:04:06.987Z,13.32
2023-02-12T03:06:40.254Z,13.02
2023-02-12T03:09:23.456Z,13.60
2023-02-12T03:11:51.666Z,15.13
2023-02-12T03:14:35.999Z,13.95
2023-02-12T03:17:26.015Z,14.70
2023-02-12T03:20:17.870Z,14.48
2023-02-12T03:22:53.594Z,14.15
2023-02-12T03:25:25.950Z,13.32
2023-02-12T03:28:07.924Z,13.68
2023-02-12T03:31:00.903Z,15.38
2023-02-12T03:33:44.704Z,15.30
2023-02-12T03:36:34.684Z,13.88
2023-02-12T03:39:08.969Z,14.40
2023-02-12T03:41:43.680Z,13.50
2023-02-12T03:44:43.296Z,14.65
2023-02-12T03:47:48.671Z,14.90
2023-02-12T03:50:32.953Z,15.27
2023-02-12T03:53:11.180Z,16.02
2023-02-12T03:56:12.089Z,15.13
2023-02-12T03:58:40.531Z,16.13
2023-02-12T04:01:11.043Z,16.08
2023-02-12T04:03:39.323Z,17.60
2023-02-12T04:06:25.843Z,17.85
2023-02-12T04:08:55.848Z,16.98
2023-02-12T04:11:35.046Z,17.77
2023-02-12T04:14:09.254Z,19.85
2023-02-12T04:16:59.889Z,16.77
2023-02-12T04:19:34.883Z,16.02
2023-02-12T04:22:27.529Z,16.67
2023-02-12T04:25:33.644Z,15.43
2023-02-12T04:28:22.257Z,16.63
2023-02-12T04:31:13.316Z,17.83
2023-02-12T04:33:48.099Z,18.05
2023-02-12T04:36:18.372Z,18.42
2023-02-12T04:38:55.805Z,19.20
2023-02-12T04:41:25.625Z,18.65
2023-02-12T04:43:54.784Z,17.67
2023-02-12T04:46:44.138Z,17.90
2023-02-12T04:49:17.990Z,18.88
2023-02-12T04:51:50.309Z,22.73
2023-02-12T04:54:20.429Z,22.00
2023-02-12T04:56:52.298Z,21.15
2023-02-12T04:59:20.522Z,20.77
2023-02-12T05:01:49.291Z,22.05
2023-02-12T05:04:17.877Z,21.30
2023-02-12T05:06:46.554Z,21.58
2023-02-12T05:09:16.306Z,22.52
2023-02-12T05:11:46.014Z,22.70
2023-02-12T05:14:17.421Z,24.42
2023-02-12T05:16:46.548Z,21.85
2023-02-12T05:19:15.478Z,20.63
2023-02-12T05:21:47.568Z,21.05
2023-02-12T05:24:18.798Z,19.15
2023-02-12T05:26:48.329Z,21.80
2023-02-12T05:29:17.246Z,20.40
2023-02-12T05:31:45.350Z,20.30
2023-02-12T05:34:14.452Z,21.77
2023-02-12T05:36:43.249Z,20.48
2023-02-12T05:39:11.563Z,21.40
2023-02-12T05:41:40.505Z,21.00
2023-02-12T05:44:08.520Z,23.48
2023-02-12T05:46:37.122Z,21.90
2023-02-12T05:49:05.122Z,19.73
2023-02-12T05:51:34.166Z,21.05
2023-02-12T05:54:03.935Z,20.95
2023-02-12T05:56:33.606Z,20.90
2023-02-12T05:59:06.310Z,21.25
2023-02-12T06:01:36.645Z,19.63
2023-02-12T06:04:08.845Z,20.75
2023-02-12T06:06:37.280Z,21.88
2023-02-12T06:09:05.275Z,21.30
2023-02-12T06:11:35.021Z,21.27
2023-02-12T06:14:07.750Z,18.38
2023-02-12T06:16:41.203Z,20.08
2023-02-12T06:19:10.051Z,19.23
2023-02-12T06:21:40.166Z,21.05
2023-02-12T06:24:12.194Z,19.95
2023-02-12T06:26:40.239Z,20.65
2023-02-12T06:29:09.210Z,20.77
2023-02-12T06:31:59.329Z,20.95
2023-02-12T06:34:29.209Z,21.23
2023-02-12T06:36:57.487Z,23.35
2023-02-12T06:39:25.983Z,23.98
2023-02-12T06:41:54.666Z,23.58
2023-02-12T06:44:26.321Z,24.27
2023-02-12T06:46:56.313Z,26.10
2023-02-12T06:49:24.399Z,27.25
2023-02-12T06:51:52.982Z,26.35
2023-02-12T06:54:20.931Z,26.63
2023-02-12T06:56:49.076Z,25.90
2023-02-12T06:59:18.293Z,28.48
2023-02-12T07:01:54.163Z,25.08
2023-02-12T07:04:26.295Z,21.70
2023-02-12T07:06:57.602Z,23.30
2023-02-12T07:09:27.388Z,19.38
2023-02-12T07:12:01.187Z,19.75
2023-02-12T07:14:30.025Z,18.95
2023-02-12T07:17:03.952Z,16.27
2023-02-12T07:19:33.918Z,15.38
2023-02-12T07:22:03.406Z,17.58
2023-02-12T07:24:44.808Z,13.82
2023-02-12T07:27:19.017Z,15.40
2023-02-12T07:29:47.308Z,14.15
2023-02-12T07:32:15.636Z,13.48
2023-02-12T07:34:44.274Z,14.63
2023-02-12T07:37:12.745Z,13.00
2023-02-12T07:39:42.378Z,9.27
2023-02-12T07:42:15.211Z,6.07
2023-02-12T07:44:53.176Z,3.58
2023-02-12T07:47:21.735Z,2.97
2023-02-12T07:49:49.703Z,1.60
2023-02-12T07:52:19.695Z,1.48
2023-02-12T07:54:48.208Z,1.23
2023-02-12T07:57:16.342Z,1.08
2023-02-12T07:59:44.430Z,1.13
2023-02-12T08:02:12.445Z,0.57
2023-02-12T08:04:42.576Z,0.90
2023-02-12T08:07:11.424Z,0.80
2023-02-12T08:09:39.268Z,1.73
2023-02-12T08:12:08.364Z,1.15
2023-02-12T08:14:41.761Z,0.88
2023-02-12T08:17:11.695Z,0.98
2023-02-12T08:19:40.356Z,0.80
2023-02-12T08:22:10.813Z,0.70
2023-02-12T08:24:41.810Z,0.77
2023-02-12T08:27:10.336Z,0.63
2023-02-12T08:29:39.842Z,0.73
2023-02-12T08:32:14.231Z,0.60
2023-02-12T08:34:42.477Z,0.77
2023-02-12T08:37:10.692Z,0.50
2023-02-12T08:39:39.045Z,0.50
2023-02-12T08:42:16.994Z,0.80
2023-02-12T08:44:47.725Z,0.80
2023-02-12T08:47:15.926Z,1.40
2023-02-12T08:49:44.455Z,0.70
2023-02-12T08:52:33.329Z,0.68
2023-02-12T08:55:03.993Z,0.80
2023-02-12T08:57:34.692Z,0.93
2023-02-12T09:00:03.609Z,0.55
2023-02-12T09:02:35.617Z,1.20
2023-02-12T09:05:04.672Z,0.82
2023-02-12T09:07:34.077Z,0.63
2023-02-12T09:10:46.259Z,0.90
2023-02-12T09:14:03.237Z,0.70
2023-02-12T09:16:50.443Z,0.70
2023-02-12T09:20:30.963Z,0.98
2023-02-12T09:23:09.499Z,0.50
2023-02-12T09:26:12.931Z,0.73
2023-02-12T09:29:13.610Z,0.70
2023-02-12T09:32:15.209Z,0.77
2023-02-12T09:34:44.686Z,0.43
2023-02-12T09:37:17.250Z,0.63
2023-02-12T09:39:53.121Z,0.73
2023-02-12T09:43:07.667Z,0.73
2023-02-12T09:45:50.318Z,0.63
2023-02-12T09:49:07.550Z,0.60
2023-02-12T09:51:45.897Z,0.90
2023-02-12T09:54:15.678Z,0.60
2023-02-12T09:56:49.813Z,0.70
2023-02-12T09:59:54.607Z,0.50
2023-02-12T10:02:23.829Z,0.70
2023-02-12T10:05:03.250Z,0.60
2023-02-12T10:07:43.718Z,0.60
2023-02-12T10:10:48.477Z,0.50
2023-02-12T10:14:20.836Z,0.47
2023-02-12T10:17:25.678Z,0.70
2023-02-12T10:20:49.549Z,0.57
2023-02-12T10:24:20.749Z,0.60
2023-02-12T10:27:25.779Z,0.50
2023-02-12T10:30:01.650Z,0.40
2023-02-12T10:35:13.752Z,0.50
2023-02-12T10:38:16.640Z,0.40
2023-02-12T10:40:47.020Z,0.50
2023-02-12T10:43:15.948Z,0.63
2023-02-12T10:45:53.917Z,0.40
2023-02-12T10:48:36.242Z,0.60
2023-02-12T10:51:33.310Z,0.95
2023-02-12T10:54:30.732Z,0.50
2023-02-12T10:57:01.244Z,0.52
2023-02-12T10:59:29.691Z,0.82
2023-02-12T11:02:27.675Z,0.65
2023-02-12T11:05:00.353Z,0.60
2023-02-12T11:07:32.937Z,1.13
2023-02-12T11:10:01.541Z,0.73
2023-02-12T11:12:48.486Z,0.68
2023-02-12T11:15:26.840Z,0.75
2023-02-12T11:18:08.639Z,1.15
2023-02-12T11:21:22.950Z,0.70
2023-02-12T11:24:27.218Z,0.77
2023-02-12T11:27:31.286Z,0.60
2023-02-12T11:30:16.958Z,0.70
2023-02-12T11:32:49.671Z,0.98
2023-02-12T11:36:26.656Z,0.93
2023-02-12T11:39:00.487Z,0.70
2023-02-12T11:41:30.217Z,0.75
2023-02-12T11:45:41.050Z,0.50
2023-02-12T11:53:23.407Z,0.70
2023-02-12T11:56:11.291Z,0.75
2023-02-12T11:58:42.248Z,0.90
2023-02-12T12:01:28.771Z,2.00
2023-02-12T12:05:08.409Z,0.93
2023-02-12T12:08:41.022Z,0.77
2023-02-12T12:11:13.268Z,0.90
2023-02-12T12:13:52.624Z,0.70
2023-02-12T12:17:02.121Z,0.80
2023-02-12T12:20:07.577Z,0.60
2023-02-12T12:22:54.912Z,0.65
2023-02-12T12:25:35.549Z,0.90
2023-02-12T12:28:36.630Z,0.80
2023-02-12T12:31:22.374Z,1.65
2023-02-12T12:37:12.653Z,0.85
2023-02-12T12:39:58.228Z,0.95
2023-02-12T12:43:13.766Z,0.70
2023-02-12T12:46:25.272Z,0.80
2023-02-12T12:48:56.783Z,0.90
2023-02-12T12:51:42.556Z,0.77
2023-02-12T12:54:51.428Z,1.00
2023-02-12T12:57:47.903Z,1.00
2023-02-12T13:00:56.343Z,0.90
2023-02-12T13:03:54.278Z,1.00
2023-02-12T13:07:08.429Z,1.10
2023-02-12T13:09:58.034Z,0.90
2023-02-12T13:13:30.238Z,1.00
2023-02-12T13:16:38.205Z,0.98
2023-02-12T13:19:20.142Z,1.08
2023-02-12T13:22:04.728Z,1.10
2023-02-12T13:25:24.250Z,1.58
2023-02-12T13:28:03.479Z,1.70
2023-02-12T13:31:31.875Z,1.35
2023-02-12T13:34:07.458Z,1.00
2023-02-12T13:36:44.913Z,1.20
2023-02-12T13:39:37.958Z,1.15
2023-02-12T13:42:27.731Z,1.27
2023-02-12T13:45:21.020Z,1.30
2023-02-12T13:48:22.995Z,1.20
2023-02-12T13:51:00.094Z,0.93
2023-02-12T13:54:02.995Z,1.13
2023-02-12T13:56:51.580Z,1.10
2023-02-12T13:59:53.968Z,1.38
2023-02-12T14:02:50.683Z,1.92
2023-02-12T14:05:30.746Z,1.63
2023-02-12T14:08:09.542Z,1.23
2023-02-12T14:10:44.892Z,1.00
2023-02-12T14:13:28.067Z,1.15
2023-02-12T14:15:59.006Z,1.63
2023-02-12T14:22:29.312Z,1.10
2023-02-12T14:25:19.324Z,1.42
2023-02-12T14:28:12.056Z,1.58
2023-02-12T14:30:43.878Z,1.65
2023-02-12T14:33:23.539Z,1.50
2023-02-12T14:36:16.896Z,2.00
2023-02-12T14:39:23.340Z,1.38
2023-02-12T14:41:57.661Z,1.17
2023-02-12T14:44:30.911Z,1.90
2023-02-12T14:47:07.163Z,1.10
2023-02-12T14:49:47.627Z,1.95
2023-02-12T14:52:38.696Z,1.58
2023-02-12T14:55:28.543Z,1.88
2023-02-12T14:57:59.261Z,1.15
2023-02-12T15:00:39.416Z,1.23
2023-02-12T15:03:13.454Z,1.50
2023-02-12T15:05:51.107Z,1.35
2023-02-12T15:08:56.693Z,1.40
2023-02-12T15:11:34.317Z,0.70
2023-02-12T15:14:05.712Z,1.30
2023-02-12T15:17:05.407Z,1.23
2023-02-12T15:20:08.636Z,1.35
2023-02-12T15:22:41.260Z,1.13
2023-02-12T15:25:24.663Z,1.83
2023-02-12T15:27:58.152Z,1.30
2023-02-12T15:30:31.020Z,1.45
2023-02-12T15:33:01.863Z,1.20
2023-02-12T15:35:34.865Z,1.52
2023-02-12T15:38:03.699Z,1.42
2023-02-12T15:40:34.183Z,1.10
2023-02-12T15:43:17.695Z,1.25
2023-02-12T15:46:09.163Z,1.30
2023-02-12T15:48:56.924Z,0.88
2023-02-12T15:56:14.194Z,1.50
2023-02-12T15:59:25.203Z,1.20
2023-02-12T16:02:03.750Z,1.33
2023-02-12T16:04:36.042Z,1.50
2023-02-12T16:07:04.822Z,1.30
2023-02-12T16:09:36.566Z,1.25
2023-02-12T16:12:34.411Z,1.60
2023-02-12T16:15:45.630Z,1.25
2023-02-12T16:18:27.979Z,1.67
2023-02-12T16:21:23.347Z,1.60
2023-02-12T16:25:33.250Z,1.73
2023-02-12T16:28:46.137Z,1.35
2023-02-12T16:32:29.404Z,1.25
2023-02-12T16:40:32.875Z,1.33
2023-02-12T16:43:27.297Z,1.10
2023-02-12T16:46:30.681Z,1.15
2023-02-12T16:49:00.857Z,1.00
2023-02-12T16:52:33.973Z,0.82
2023-02-12T16:55:43.881Z,1.27
2023-02-12T16:58:25.722Z,1.52
2023-02-12T17:00:55.120Z,1.13
2023-02-12T17:03:33.244Z,1.15
2023-02-12T17:06:06.022Z,1.20
2023-02-12T17:09:07.359Z,1.83
2023-02-12T17:11:35.760Z,1.38
2023-02-12T17:14:09.548Z,1.20
2023-02-12T17:16:38.162Z,2.00
2023-02-12T17:19:11.264Z,1.25
2023-02-12T17:21:43.759Z,2.00
2023-02-12T17:24:19.066Z,1.63
2023-02-12T17:26:52.122Z,1.38
2023-02-12T17:29:31.425Z,1.73
2023-02-12T17:32:10.149Z,1.92
2023-02-12T17:34:48.632Z,1.67
2023-02-12T17:37:18.469Z,1.38
2023-02-12T17:40:18.988Z,1.70
2023-02-12T17:42:47.260Z,1.85
2023-02-12T17:45:15.702Z,1.50
2023-02-12T17:47:46.633Z,1.13
2023-02-12T17:51:19.652Z,1.70
2023-02-12T17:53:48.168Z,1.38
2023-02-12T17:57:26.840Z,1.02
2023-02-12T18:00:41.261Z,1.90
2023-02-12T18:03:14.037Z,2.15
2023-02-12T18:05:49.060Z,1.40
2023-02-12T18:09:01.951Z,2.22
2023-02-12T18:12:07.397Z,1.75
2023-02-12T18:14:39.205Z,1.58
2023-02-12T18:17:16.764Z,1.85
2023-02-12T18:20:48.861Z,1.48
2023-02-12T18:23:19.465Z,1.58
2023-02-12T18:25:47.577Z,1.73
2023-02-12T18:28:16.201Z,1.83
2023-02-12T18:31:03.895Z,1.00
2023-02-12T18:33:34.296Z,1.58
2023-02-12T18:36:15.457Z,1.58
2023-02-12T18:39:26.318Z,1.10
2023-02-12T18:41:59.220Z,1.00
2023-02-12T18:45:08.319Z,1.38
2023-02-12T18:47:36.635Z,1.30
2023-02-12T18:50:51.961Z,1.52
2023-02-12T18:53:26.624Z,1.08
2023-02-12T18:55:58.775Z,1.58
2023-02-12T18:58:28.617Z,1.77
2023-02-12T19:01:00.630Z,1.25
2023-02-12T19:03:31.250Z,1.60
2023-02-12T19:06:04.558Z,1.77
2023-02-12T19:08:32.796Z,1.50
2023-02-12T19:11:33.071Z,1.40
2023-02-12T19:14:10.283Z,1.60
2023-02-12T19:16:45.978Z,1.15
2023-02-12T19:19:16.979Z,1.50
2023-02-12T19:21:48.898Z,1.38
2023-02-12T19:24:18.337Z,1.38
2023-02-12T19:26:53.852Z,1.60
2023-02-12T19:29:57.301Z,1.85
2023-02-12T19:32:34.321Z,2.35
2023-02-12T19:35:09.402Z,1.50
2023-02-12T19:38:10.150Z,2.10
2023-02-12T19:41:42.475Z,2.35
2023-02-12T19:44:18.046Z,2.60
2023-02-12T19:46:48.376Z,1.60
2023-02-12T19:49:22.585Z,2.85
2023-02-12T19:51:53.082Z,2.13
2023-02-12T19:54:22.463Z,2.35
2023-02-12T19:56:52.244Z,2.85
2023-02-12T19:59:23.473Z,2.42
2023-02-12T20:03:08.188Z,2.35
2023-02-12T20:06:03.330Z,2.42
2023-02-12T20:09:11.178Z,2.00
2023-02-12T20:12:26.935Z,2.60
2023-02-12T20:14:56.407Z,1.98
2023-02-12T20:17:59.223Z,1.33
2023-02-12T20:21:23.679Z,1.55
2023-02-12T20:23:53.414Z,1.73
2023-02-12T20:26:29.656Z,1.38
2023-02-12T20:29:13.972Z,1.10
2023-02-12T20:31:48.111Z,1.40
2023-02-12T20:34:18.444Z,0.75
2023-02-12T20:36:47.648Z,1.75
2023-02-12T20:39:18.580Z,0.98
2023-02-12T20:41:54.435Z,0.70
2023-02-12T20:44:57.779Z,1.00
2023-02-12T20:47:30.881Z,1.00
2023-02-12T20:49:59.364Z,1.00
2023-02-12T20:52:27.599Z,1.10
2023-02-12T20:54:58.178Z,1.17
2023-02-12T20:57:26.682Z,1.00
2023-02-12T21:00:16.719Z,0.80
2023-02-12T21:02:50.844Z,0.82
2023-02-12T21:05:21.483Z,0.80
2023-02-12T21:07:50.791Z,0.88
2023-02-12T21:10:25.249Z,0.90
2023-02-12T21:12:56.237Z,1.00
2023-02-12T21:15:31.253Z,0.90
2023-02-12T21:18:00.919Z,1.02
2023-02-12T21:20:30.174Z,1.05
2023-02-12T21:22:59.301Z,1.23
2023-02-12T21:25:27.230Z,0.85
2023-02-12T21:27:55.240Z,0.70
2023-02-12T21:30:24.179Z,1.00
2023-02-12T21:33:00.486Z,0.95
2023-02-12T21:35:41.971Z,0.90
2023-02-12T21:38:11.211Z,1.00
2023-02-12T21:40:39.499Z,1.08
2023-02-12T21:43:09.274Z,1.17
2023-02-12T21:45:37.683Z,1.45
2023-02-12T21:48:06.188Z,0.90
2023-02-12T21:50:35.675Z,1.45
2023-02-12T21:53:07.279Z,1.08
2023-02-12T21:55:39.086Z,1.13
2023-02-12T21:58:07.161Z,0.68
2023-02-12T22:00:36.246Z,1.27
2023-02-12T22:03:06.445Z,1.17
2023-02-12T22:05:35.276Z,1.00
2023-02-12T22:08:04.943Z,1.00
2023-02-12T22:10:38.594Z,1.38
2023-02-12T22:13:07.541Z,1.58
2023-02-12T22:15:40.869Z,1.35
2023-02-12T22:18:09.227Z,1.70
2023-02-12T22:20:39.517Z,1.63
2023-02-12T22:23:12.339Z,1.42
2023-02-12T22:25:44.278Z,2.15
2023-02-12T22:28:17.388Z,1.67
2023-02-12T22:30:45.474Z,1.70
2023-02-12T22:33:15.295Z,1.13
2023-02-12T22:35:46.065Z,1.48
2023-02-12T22:38:18.836Z,1.48
2023-02-12T22:40:47.339Z,1.40
2023-02-12T22:43:16.576Z,1.95
2023-02-12T22:45:44.736Z,1.58
2023-02-12T22:48:13.363Z,1.60
2023-02-12T22:50:42.037Z,1.90
2023-02-12T22:53:14.262Z,2.17
2023-02-12T22:55:43.052Z,1.65
2023-02-12T22:58:11.983Z,1.95
2023-02-12T23:00:43.950Z,2.35
2023-02-12T23:03:13.722Z,1.75
2023-02-12T23:05:41.899Z,1.98
2023-02-12T23:08:12.209Z,1.50
2023-02-12T23:10:41.488Z,1.85
2023-02-12T23:13:18.587Z,1.83
2023-02-12T23:16:22.668Z,1.65
2023-02-12T23:18:56.733Z,1.90
2023-02-12T23:21:27.753Z,1.70
2023-02-12T23:24:15.207Z,1.75
2023-02-12T23:26:46.140Z,1.95
2023-02-12T23:29:14.516Z,1.00
2023-02-12T23:31:43.795Z,1.20
2023-02-12T23:34:12.581Z,1.80
2023-02-12T23:36:50.194Z,1.75
2023-02-12T23:39:18.277Z,1.75
2023-02-12T23:41:47.481Z,2.03
2023-02-12T23:44:16.771Z,1.23
2023-02-12T23:46:47.718Z,1.60
2023-02-12T23:49:15.764Z,1.70
2023-02-12T23:51:50.599Z,0.77
2023-02-12T23:54:19.912Z,1.17
2023-02-12T23:56:49.039Z,1.88
2023-02-12T23:59:17.454Z,1.10
